Time;durP1;ratioP1;P1;durP2;ratioP2;P2;SDS_P1;SDS_P2;PMS_P1;PMS_P2;Temp;Humidity;BMP_temperature;BMP_pressure;BME280_temperature;BME280_humidity;BME280_pressure;Samples;Min_cycle;Max_cycle;Signal;HPM_P1;HPM_P2
2023/09/28 00:03:41;;;;;;;6.37;3.40;;;;;;;;;;6224542;23;20422;-91
2023/09/28 00:06:07;;;;;;;5.07;3.43;;;;;;;;;;6175561;23;20397;-93
2023/09/28 00:08:33;;;;;;;3.50;2.70;;;;;;;;;;6173445;22;20351;-95
2023/09/28 00:10:59;;;;;;;3.33;2.63;;;;;;;;;;6198695;23;20396;-92
2023/09/28 00:13:25;;;;;;;3.80;2.97;;;;;;;;;;6173056;23;20375;-91
2023/09/28 00:15:53;;;;;;;6.97;3.03;;;;;;;;;;6175552;23;20383;-93
2023/09/28 00:18:21;;;;;;;4.30;2.87;;;;;;;;;;6171072;23;20394;-90
2023/09/28 00:20:48;;;;;;;3.93;3.50;;;;;;;;;;6203423;23;20487;-94
2023/09/28 00:23:14;;;;;;;5.30;3.33;;;;;;;;;;6200120;23;20383;-92
2023/09/28 00:25:40;;;;;;;4.03;3.07;;;;;;;;;;6178237;23;20397;-91
2023/09/28 00:28:06;;;;;;;3.73;3.40;;;;;;;;;;6169935;23;20393;-94
2023/09/28 00:30:45;;;;;;;5.53;3.50;;;;;;;;;;6146731;23;20379;-93
2023/09/28 00:33:11;;;;;;;4.07;3.30;;;;;;;;;;6195714;23;20395;-93
2023/09/28 00:35:38;;;;;;;3.53;2.67;;;;;;;;;;6146047;23;20467;-94
2023/09/28 00:38:05;;;;;;;4.40;3.10;;;;;;;;;;6144147;23;20487;-93
2023/09/28 00:40:31;;;;;;;4.07;3.10;;;;;;;;;;6145285;23;20395;-93
2023/09/28 00:42:57;;;;;;;8.80;3.40;;;;;;;;;;6146067;23;20978;-94
2023/09/28 00:45:26;;;;;;;3.30;3.00;;;;;;;;;;6144933;23;20724;-93
2023/09/28 00:47:57;;;;;;;6.63;3.40;;;;;;;;;;6144945;23;20452;-94
2023/09/28 00:50:23;;;;;;;3.90;3.17;;;;;;;;;;6169429;23;20984;-93
2023/09/28 00:52:50;;;;;;;3.13;2.80;;;;;;;;;;6146749;23;20395;-93
2023/09/28 00:55:17;;;;;;;3.93;2.90;;;;;;;;;;6146088;23;20412;-93
2023/09/28 00:57:45;;;;;;;5.27;3.10;;;;;;;;;;6148999;23;20368;-93
2023/09/28 01:00:26;;;;;;;3.23;2.83;;;;;;;;;;6144761;23;20399;-93
2023/09/28 01:02:52;;;;;;;3.27;2.90;;;;;;;;;;6155259;23;20420;-93
2023/09/28 01:05:31;;;;;;;3.27;2.83;;;;;;;;;;6157655;23;20367;-93
2023/09/28 01:08:20;;;;;;;3.40;2.83;;;;;;;;;;6181496;23;20364;-93
2023/09/28 01:10:46;;;;;;;3.60;3.27;;;;;;;;;;6199931;23;20437;-92
2023/09/28 01:13:15;;;;;;;3.23;2.80;;;;;;;;;;6176263;23;20359;-93
2023/09/28 01:15:41;;;;;;;4.03;3.13;;;;;;;;;;6175630;23;20414;-94
2023/09/28 01:18:11;;;;;;;4.93;2.87;;;;;;;;;;6180269;23;20459;-94
2023/09/28 01:20:37;;;;;;;3.63;2.77;;;;;;;;;;6174303;23;20453;-91
2023/09/28 01:23:06;;;;;;;4.60;3.10;;;;;;;;;;6173896;23;20419;-94
2023/09/28 01:25:32;;;;;;;3.37;2.90;;;;;;;;;;6172911;23;20383;-93
2023/09/28 01:28:01;;;;;;;3.17;2.90;;;;;;;;;;6176697;23;20418;-93
2023/09/28 01:30:27;;;;;;;3.80;2.60;;;;;;;;;;6199093;23;20471;-92
2023/09/28 01:32:53;;;;;;;5.00;3.10;;;;;;;;;;6182153;23;20913;-94
2023/09/28 01:35:20;;;;;;;4.40;3.50;;;;;;;;;;6198003;23;20383;-93
2023/09/28 01:37:58;;;;;;;3.90;2.97;;;;;;;;;;6174083;23;21013;-92
2023/09/28 01:40:24;;;;;;;4.50;3.60;;;;;;;;;;6172789;23;20399;-93
2023/09/28 01:42:50;;;;;;;3.87;3.07;;;;;;;;;;6174384;23;20462;-94
2023/09/28 01:45:16;;;;;;;6.53;3.17;;;;;;;;;;6174149;23;20881;-93
2023/09/28 01:47:42;;;;;;;4.63;3.17;;;;;;;;;;6176338;23;20461;-94
2023/09/28 01:50:08;;;;;;;5.90;3.47;;;;;;;;;;6173515;23;21058;-93
2023/09/28 01:52:34;;;;;;;3.63;3.30;;;;;;;;;;6177100;23;20430;-93
2023/09/28 01:55:00;;;;;;;4.83;2.83;;;;;;;;;;6175442;23;20915;-94
2023/09/28 01:57:26;;;;;;;4.07;3.67;;;;;;;;;;6177239;23;20397;-95
2023/09/28 01:59:52;;;;;;;4.17;3.70;;;;;;;;;;6173927;23;20391;-94
2023/09/28 02:04:52;;;;;;;4.00;2.80;;;;;;;;;;6232220;23;20608;-94
2023/09/28 02:07:18;;;;;;;3.57;3.17;;;;;;;;;;6200896;23;20394;-92
2023/09/28 02:09:44;;;;;;;4.23;3.83;;;;;;;;;;6198223;23;20405;-93
2023/09/28 02:12:11;;;;;;;4.20;3.23;;;;;;;;;;6199216;23;20391;-93
2023/09/28 02:14:37;;;;;;;5.90;3.30;;;;;;;;;;6196499;23;20379;-91
2023/09/28 02:17:03;;;;;;;3.90;3.40;;;;;;;;;;6200861;23;20367;-93
2023/09/28 02:19:29;;;;;;;4.80;3.20;;;;;;;;;;6198369;23;20375;-94
2023/09/28 02:21:55;;;;;;;4.83;3.20;;;;;;;;;;6198881;23;20410;-93
2023/09/28 02:24:21;;;;;;;4.17;3.47;;;;;;;;;;6197529;23;20399;-92
2023/09/28 02:26:48;;;;;;;4.73;3.40;;;;;;;;;;6200620;23;20394;-91
2023/09/28 02:29:14;;;;;;;3.10;2.80;;;;;;;;;;6197711;23;20431;-94
2023/09/28 02:31:43;;;;;;;4.27;3.30;;;;;;;;;;6199701;23;20445;-92
2023/09/28 02:34:09;;;;;;;4.30;3.57;;;;;;;;;;6199689;23;20414;-93
2023/09/28 02:36:46;;;;;;;3.67;3.10;;;;;;;;;;6203691;23;20383;-91
2023/09/28 02:39:20;;;;;;;6.17;3.20;;;;;;;;;;6225225;23;20367;-93
2023/09/28 02:41:46;;;;;;;5.67;3.67;;;;;;;;;;6199392;23;20689;-94
2023/09/28 02:44:12;;;;;;;3.80;3.07;;;;;;;;;;6197375;23;20384;-92
2023/09/28 02:46:40;;;;;;;5.03;4.27;;;;;;;;;;6201906;23;20407;-92
2023/09/28 02:49:06;;;;;;;3.83;3.50;;;;;;;;;;6200775;23;20391;-94
2023/09/28 02:51:32;;;;;;;5.53;4.50;;;;;;;;;;6201126;23;20434;-94
2023/09/28 02:53:59;;;;;;;4.90;3.90;;;;;;;;;;6200667;23;20390;-93
2023/09/28 02:56:29;;;;;;;5.27;3.87;;;;;;;;;;6202112;23;20392;-94
2023/09/28 02:58:56;;;;;;;4.70;3.90;;;;;;;;;;6201537;23;20380;-95
2023/09/28 03:01:22;;;;;;;4.77;3.70;;;;;;;;;;6198633;23;20434;-93
2023/09/28 03:03:51;;;;;;;4.80;3.50;;;;;;;;;;6199004;23;21040;-94
2023/09/28 03:06:17;;;;;;;5.90;3.93;;;;;;;;;;6198438;23;20399;-95
2023/09/28 03:08:43;;;;;;;3.13;2.60;;;;;;;;;;6197578;23;20433;-95
2023/09/28 03:11:28;;;;;;;5.90;3.83;;;;;;;;;;6201243;23;20390;-94
2023/09/28 03:13:54;;;;;;;3.63;3.33;;;;;;;;;;6176824;23;20709;-93
2023/09/28 03:16:22;;;;;;;3.40;2.80;;;;;;;;;;6200632;23;20399;-93
2023/09/28 03:18:48;;;;;;;4.97;3.80;;;;;;;;;;6202130;23;20375;-95
2023/09/28 03:21:14;;;;;;;7.47;3.87;;;;;;;;;;6200599;23;20450;-93
2023/09/28 03:23:40;;;;;;;3.50;3.20;;;;;;;;;;6199497;23;20374;-91
2023/09/28 03:26:06;;;;;;;4.37;3.40;;;;;;;;;;6199922;23;20391;-93
2023/09/28 03:28:33;;;;;;;3.63;3.30;;;;;;;;;;6204652;23;20413;-92
2023/09/28 03:30:59;;;;;;;3.90;3.50;;;;;;;;;;6199858;23;20379;-91
2023/09/28 03:33:25;;;;;;;4.23;3.00;;;;;;;;;;6201612;23;20917;-91
2023/09/28 03:35:51;;;;;;;4.30;3.50;;;;;;;;;;6224824;23;20368;-94
2023/09/28 03:38:17;;;;;;;6.10;3.97;;;;;;;;;;6202600;23;20391;-93
2023/09/28 03:40:43;;;;;;;7.60;3.50;;;;;;;;;;6200714;23;20394;-92
2023/09/28 03:43:09;;;;;;;5.20;3.70;;;;;;;;;;6202205;23;20395;-94
2023/09/28 03:45:35;;;;;;;3.43;3.13;;;;;;;;;;6200586;23;20375;-91
2023/09/28 03:48:01;;;;;;;3.70;3.00;;;;;;;;;;6204385;23;20458;-93
2023/09/28 03:50:28;;;;;;;4.40;3.50;;;;;;;;;;6199521;23;20929;-93
2023/09/28 03:52:55;;;;;;;4.10;3.33;;;;;;;;;;6202597;23;20429;-93
2023/09/28 03:55:21;;;;;;;4.93;3.10;;;;;;;;;;6178160;23;20518;-94
2023/09/28 03:57:48;;;;;;;6.87;3.20;;;;;;;;;;6204059;23;20374;-92
2023/09/28 04:00:14;;;;;;;5.57;4.57;;;;;;;;;;6202055;23;21051;-92
2023/09/28 04:02:44;;;;;;;3.63;3.00;;;;;;;;;;6204759;23;20453;-94
2023/09/28 04:05:10;;;;;;;4.07;3.13;;;;;;;;;;6203140;23;20509;-94
2023/09/28 04:07:36;;;;;;;5.10;3.40;;;;;;;;;;6172653;23;20411;-93
2023/09/28 04:10:03;;;;;;;4.57;3.87;;;;;;;;;;6173445;23;20394;-92
2023/09/28 04:12:29;;;;;;;3.57;3.10;;;;;;;;;;6170295;23;20394;-93
2023/09/28 04:14:55;;;;;;;5.17;3.47;;;;;;;;;;6138947;23;20404;-93
2023/09/28 04:17:21;;;;;;;4.27;3.77;;;;;;;;;;6145955;23;20396;-93
2023/09/28 04:19:47;;;;;;;5.07;4.00;;;;;;;;;;6141011;23;20396;-93
2023/09/28 04:22:13;;;;;;;6.50;4.83;;;;;;;;;;6140854;23;20432;-93
2023/09/28 04:24:39;;;;;;;4.37;3.50;;;;;;;;;;6139233;23;20483;-90
2023/09/28 04:27:08;;;;;;;8.17;4.30;;;;;;;;;;6140227;23;20405;-92
2023/09/28 04:29:34;;;;;;;4.07;2.70;;;;;;;;;;6142394;23;20395;-93
2023/09/28 04:32:00;;;;;;;4.40;3.20;;;;;;;;;;6134502;23;20385;-93
2023/09/28 04:34:26;;;;;;;4.70;3.40;;;;;;;;;;6137998;23;20516;-93
2023/09/28 04:36:52;;;;;;;4.73;3.43;;;;;;;;;;6135959;23;20389;-94
2023/09/28 04:39:19;;;;;;;5.20;3.87;;;;;;;;;;6168906;23;20431;-92
2023/09/28 04:41:45;;;;;;;5.13;3.47;;;;;;;;;;6146547;23;20427;-91
2023/09/28 04:44:11;;;;;;;4.20;3.67;;;;;;;;;;6145351;23;20400;-93
2023/09/28 04:46:37;;;;;;;4.13;3.37;;;;;;;;;;6168944;23;20410;-93
2023/09/28 04:49:04;;;;;;;3.57;3.27;;;;;;;;;;6181912;23;20422;-92
2023/09/28 04:51:30;;;;;;;4.07;3.67;;;;;;;;;;6175892;23;20367;-92
2023/09/28 04:53:56;;;;;;;4.97;3.47;;;;;;;;;;6174621;23;20379;-94
2023/09/28 04:56:22;;;;;;;4.40;4.00;;;;;;;;;;6174579;23;20402;-93
2023/09/28 04:58:49;;;;;;;3.80;3.20;;;;;;;;;;6175774;23;20367;-91
2023/09/28 05:01:15;;;;;;;3.97;3.60;;;;;;;;;;6175320;23;20430;-92
2023/09/28 05:03:41;;;;;;;5.00;3.90;;;;;;;;;;6223627;23;20391;-92
2023/09/28 05:06:08;;;;;;;8.33;4.00;;;;;;;;;;6200642;23;20391;-93
2023/09/28 05:08:34;;;;;;;5.00;3.17;;;;;;;;;;6200865;23;20468;-92
2023/09/28 05:11:01;;;;;;;3.43;2.70;;;;;;;;;;6201389;23;20376;-93
2023/09/28 05:13:29;;;;;;;3.67;2.93;;;;;;;;;;6202466;23;20386;-94
2023/09/28 05:15:55;;;;;;;5.30;3.67;;;;;;;;;;6172026;23;20392;-91
2023/09/28 05:18:21;;;;;;;5.20;3.77;;;;;;;;;;6169699;23;20403;-91
2023/09/28 05:20:48;;;;;;;4.47;3.77;;;;;;;;;;6137460;23;20666;-90
2023/09/28 05:23:39;;;;;;;;;;;;;;;;;;;;;
2023/09/28 05:26:06;;;;;;;4.67;3.70;;;;;;;;;;6083539;23;20423;-92
2023/09/28 05:28:32;;;;;;;9.70;3.57;;;;;;;;;;6029101;23;20439;-92
2023/09/28 05:30:58;;;;;;;8.03;4.33;;;;;;;;;;6032312;23;20431;-91
2023/09/28 05:33:24;;;;;;;7.00;3.90;;;;;;;;;;6030095;23;20463;-91
2023/09/28 05:35:50;;;;;;;5.60;3.80;;;;;;;;;;6033715;23;20399;-94
2023/09/28 05:38:16;;;;;;;4.17;3.57;;;;;;;;;;6029674;23;20408;-90
2023/09/28 05:40:42;;;;;;;4.40;4.00;;;;;;;;;;6052126;23;20398;-91
2023/09/28 05:43:10;;;;;;;4.83;3.90;;;;;;;;;;6028104;23;20479;-91
2023/09/28 05:45:36;;;;;;;4.60;3.07;;;;;;;;;;6028010;23;20407;-92
2023/09/28 05:48:02;;;;;;;7.80;4.60;;;;;;;;;;6056438;23;20434;-94
2023/09/28 05:50:31;;;;;;;6.70;3.87;;;;;;;;;;6084432;23;20387;-92
2023/09/28 05:52:58;;;;;;;4.90;4.10;;;;;;;;;;6082323;23;20419;-94
2023/09/28 05:55:25;;;;;;;6.10;4.07;;;;;;;;;;6153672;23;20418;-91
2023/09/28 05:57:53;;;;;;;5.30;4.13;;;;;;;;;;6161059;23;20398;-92
2023/09/28 06:00:19;;;;;;;4.47;3.97;;;;;;;;;;6201002;23;20379;-92
2023/09/28 06:02:45;;;;;;;5.13;3.60;;;;;;;;;;6200139;23;20439;-93
2023/09/28 06:05:11;;;;;;;6.23;3.70;;;;;;;;;;6177861;23;20407;-94
2023/09/28 06:07:37;;;;;;;5.00;3.30;;;;;;;;;;6180274;23;20427;-94
2023/09/28 06:10:05;;;;;;;4.77;3.27;;;;;;;;;;6177339;23;20402;-93
2023/09/28 06:12:31;;;;;;;7.00;3.70;;;;;;;;;;6202381;23;20422;-96
2023/09/28 06:14:57;;;;;;;6.17;4.40;;;;;;;;;;6169283;23;20391;-92
2023/09/28 06:17:24;;;;;;;5.67;2.73;;;;;;;;;;6169512;23;20616;-93
2023/09/28 06:19:50;;;;;;;4.70;3.13;;;;;;;;;;6170456;23;20415;-92
2023/09/28 06:22:16;;;;;;;4.50;3.20;;;;;;;;;;6198195;23;20578;-91
2023/09/28 06:24:42;;;;;;;5.73;4.00;;;;;;;;;;6167203;23;20382;-90
2023/09/28 06:27:08;;;;;;;5.33;3.80;;;;;;;;;;6175399;23;20395;-91
2023/09/28 06:29:34;;;;;;;7.30;3.20;;;;;;;;;;6194690;23;20372;-91
2023/09/28 06:32:00;;;;;;;5.60;3.03;;;;;;;;;;6172908;23;20446;-90
2023/09/28 06:34:26;;;;;;;9.07;3.53;;;;;;;;;;6168549;23;20749;-93
2023/09/28 06:36:53;;;;;;;4.20;3.07;;;;;;;;;;6168503;23;20388;-91
2023/09/28 06:39:19;;;;;;;5.27;4.47;;;;;;;;;;6170768;23;20451;-92
2023/09/28 06:41:45;;;;;;;13.03;4.50;;;;;;;;;;6173215;23;20424;-91
2023/09/28 06:44:11;;;;;;;4.67;3.33;;;;;;;;;;6168820;23;20412;-90
2023/09/28 06:46:37;;;;;;;6.17;4.97;;;;;;;;;;6169751;23;20383;-92
2023/09/28 06:49:08;;;;;;;5.27;4.00;;;;;;;;;;6172289;23;20463;-92
2023/09/28 06:51:37;;;;;;;5.73;4.17;;;;;;;;;;6178222;23;20413;-92
2023/09/28 06:54:03;;;;;;;6.10;4.30;;;;;;;;;;6205322;23;20490;-93
2023/09/28 06:56:30;;;;;;;5.80;3.70;;;;;;;;;;6201035;23;20395;-93
2023/09/28 06:58:56;;;;;;;5.00;3.73;;;;;;;;;;6206274;23;20452;-93
2023/09/28 07:01:22;;;;;;;3.80;3.10;;;;;;;;;;6200777;23;20426;-93
2023/09/28 07:03:52;;;;;;;6.60;3.77;;;;;;;;;;6202700;23;20417;-93
2023/09/28 07:06:18;;;;;;;5.13;3.33;;;;;;;;;;6200336;23;20924;-93
2023/09/28 07:08:45;;;;;;;4.40;3.30;;;;;;;;;;6228821;23;20374;-92
2023/09/28 07:11:11;;;;;;;3.13;2.83;;;;;;;;;;6225690;23;20351;-92
2023/09/28 07:13:39;;;;;;;4.70;3.07;;;;;;;;;;6203627;23;20359;-91
2023/09/28 07:16:07;;;;;;;3.20;2.80;;;;;;;;;;6199820;23;20374;-92
2023/09/28 07:18:34;;;;;;;4.43;3.30;;;;;;;;;;6198689;23;20390;-91
2023/09/28 07:21:00;;;;;;;4.27;3.37;;;;;;;;;;6198747;23;20493;-91
2023/09/28 07:23:26;;;;;;;7.70;3.70;;;;;;;;;;6202262;23;20446;-92
2023/09/28 07:25:52;;;;;;;4.00;3.00;;;;;;;;;;6198254;23;20401;-92
2023/09/28 07:28:18;;;;;;;5.27;3.67;;;;;;;;;;6233071;23;20415;-91
2023/09/28 07:30:44;;;;;;;4.10;3.20;;;;;;;;;;6198809;23;20378;-93
2023/09/28 07:33:13;;;;;;;6.27;3.20;;;;;;;;;;6203680;23;20448;-92
2023/09/28 07:35:39;;;;;;;4.77;3.53;;;;;;;;;;6198831;23;20954;-92
2023/09/28 07:38:05;;;;;;;6.77;3.67;;;;;;;;;;6198631;23;20387;-90
2023/09/28 07:40:31;;;;;;;5.83;3.80;;;;;;;;;;6199713;23;20382;-91
2023/09/28 07:42:57;;;;;;;4.43;2.87;;;;;;;;;;6206234;23;20431;-93
2023/09/28 07:45:23;;;;;;;5.70;3.90;;;;;;;;;;6202345;23;20465;-92
2023/09/28 07:47:52;;;;;;;6.20;3.20;;;;;;;;;;6203217;23;20398;-92
2023/09/28 07:50:18;;;;;;;5.03;3.27;;;;;;;;;;6227616;23;20367;-92
2023/09/28 07:52:44;;;;;;;5.20;3.57;;;;;;;;;;6202444;23;20379;-92
2023/09/28 07:55:12;;;;;;;5.87;3.77;;;;;;;;;;6201964;23;20383;-91
2023/09/28 07:57:39;;;;;;;5.30;4.03;;;;;;;;;;6201348;23;20399;-91
2023/09/28 08:00:11;;;;;;;3.50;2.60;;;;;;;;;;6201903;23;20395;-92
2023/09/28 08:05:14;;;;;;;5.17;2.97;;;;;;;;;;6290092;22;20853;-95
2023/09/28 08:07:42;;;;;;;5.33;2.97;;;;;;;;;;6239806;22;20456;-94
2023/09/28 08:10:12;;;;;;;4.43;3.30;;;;;;;;;;6238554;22;20389;-94
2023/09/28 08:12:39;;;;;;;5.47;3.40;;;;;;;;;;6269671;22;20368;-95
2023/09/28 08:15:05;;;;;;;6.90;3.80;;;;;;;;;;6172787;23;20403;-93
2023/09/28 08:17:45;;;;;;;14.73;4.00;;;;;;;;;;6149122;23;20364;-93
2023/09/28 08:20:11;;;;;;;3.87;3.00;;;;;;;;;;6148953;23;20385;-90
2023/09/28 08:22:38;;;;;;;4.40;4.00;;;;;;;;;;6144730;23;20432;-93
2023/09/28 08:25:08;;;;;;;4.23;3.37;;;;;;;;;;6144634;23;20414;-92
2023/09/28 08:27:35;;;;;;;4.87;4.37;;;;;;;;;;6145344;23;20455;-91
2023/09/28 08:30:01;;;;;;;6.10;4.30;;;;;;;;;;6143484;23;20384;-91
2023/09/28 08:32:48;;;;;;;4.73;4.13;;;;;;;;;;6148313;23;20364;-92
2023/09/28 08:35:15;;;;;;;5.10;4.60;;;;;;;;;;6166784;23;20359;-91
2023/09/28 08:37:41;;;;;;;6.13;4.23;;;;;;;;;;6143042;23;20440;-91
2023/09/28 08:40:08;;;;;;;5.10;4.17;;;;;;;;;;6144462;23;20772;-91
2023/09/28 08:42:34;;;;;;;4.67;4.20;;;;;;;;;;6145322;23;20432;-90
2023/09/28 08:45:02;;;;;;;4.00;3.33;;;;;;;;;;6151278;22;20396;-90
2023/09/28 08:47:31;;;;;;;4.57;3.67;;;;;;;;;;6237054;22;20388;-90
2023/09/28 08:49:58;;;;;;;10.17;4.63;;;;;;;;;;6235232;22;20385;-91
2023/09/28 08:52:27;;;;;;;6.90;4.57;;;;;;;;;;6238628;22;20399;-92
2023/09/28 08:54:53;;;;;;;6.53;5.57;;;;;;;;;;6236446;22;20386;-92
2023/09/28 08:57:19;;;;;;;6.90;4.23;;;;;;;;;;6236426;22;20373;-91
2023/09/28 08:59:46;;;;;;;4.30;3.70;;;;;;;;;;6236513;22;20739;-91
2023/09/28 09:02:16;;;;;;;8.40;4.97;;;;;;;;;;6239066;22;20440;-90
2023/09/28 09:04:42;;;;;;;7.40;4.70;;;;;;;;;;6238839;22;20474;-91
2023/09/28 09:07:10;;;;;;;7.70;4.50;;;;;;;;;;6237147;22;20381;-91
2023/09/28 09:09:38;;;;;;;5.30;4.07;;;;;;;;;;6189501;22;20698;-93
2023/09/28 09:12:12;;;;;;;7.20;4.60;;;;;;;;;;6261470;22;20689;-93
2023/09/28 09:14:39;;;;;;;7.10;4.63;;;;;;;;;;6262997;22;20898;-92
2023/09/28 09:17:06;;;;;;;6.07;4.10;;;;;;;;;;6260210;22;20440;-91
2023/09/28 09:19:32;;;;;;;6.73;4.83;;;;;;;;;;6242172;22;20366;-91
2023/09/28 09:21:58;;;;;;;5.47;3.77;;;;;;;;;;6236102;22;20444;-92
2023/09/28 09:24:26;;;;;;;5.30;4.60;;;;;;;;;;6236131;22;20384;-91
2023/09/28 09:26:56;;;;;;;6.03;4.20;;;;;;;;;;6233376;22;20389;-92
2023/09/28 09:29:22;;;;;;;5.90;4.90;;;;;;;;;;6236577;22;20432;-93
2023/09/28 09:31:49;;;;;;;5.80;4.30;;;;;;;;;;6233922;22;20389;-93
2023/09/28 09:34:35;;;;;;;5.97;4.50;;;;;;;;;;6233751;22;20381;-92
2023/09/28 09:37:01;;;;;;;4.73;3.60;;;;;;;;;;6130307;23;20390;-92
2023/09/28 09:42:04;;;;;;;5.23;4.07;;;;;;;;;;6207758;22;20528;-93
2023/09/28 09:44:30;;;;;;;6.80;4.57;;;;;;;;;;6167391;23;20368;-90
2023/09/28 09:46:56;;;;;;;5.63;4.47;;;;;;;;;;6166721;23;20380;-92
2023/09/28 09:49:24;;;;;;;6.07;3.90;;;;;;;;;;6166410;23;20444;-92
2023/09/28 09:51:50;;;;;;;7.00;3.37;;;;;;;;;;6168432;23;20384;-90
2023/09/28 09:54:22;;;;;;;5.73;4.47;;;;;;;;;;6169361;23;20400;-90
2023/09/28 09:56:52;;;;;;;7.33;4.10;;;;;;;;;;6169062;23;20460;-91
2023/09/28 09:59:18;;;;;;;6.07;4.13;;;;;;;;;;6170033;23;20407;-91
2023/09/28 10:01:50;;;;;;;7.00;3.90;;;;;;;;;;6192512;23;20896;-91
2023/09/28 10:04:19;;;;;;;4.57;2.90;;;;;;;;;;6166024;23;20388;-90
2023/09/28 10:06:51;;;;;;;4.60;3.43;;;;;;;;;;6191352;23;20364;-91
2023/09/28 10:09:18;;;;;;;4.30;3.17;;;;;;;;;;6171192;23;20361;-92
2023/09/28 10:11:47;;;;;;;5.83;3.47;;;;;;;;;;6194750;23;20448;-92
2023/09/28 10:14:26;;;;;;;4.73;3.53;;;;;;;;;;6174508;23;20372;-92
2023/09/28 10:16:53;;;;;;;5.17;4.00;;;;;;;;;;6191732;23;20386;-92
2023/09/28 10:19:19;;;;;;;6.80;5.40;;;;;;;;;;6169484;23;20416;-91
2023/09/28 10:21:46;;;;;;;5.57;3.77;;;;;;;;;;6168241;23;20430;-92
2023/09/28 10:24:13;;;;;;;8.50;4.90;;;;;;;;;;6169465;23;20422;-90
2023/09/28 10:26:42;;;;;;;5.33;4.00;;;;;;;;;;6168776;23;20387;-92
2023/09/28 10:29:09;;;;;;;8.30;4.30;;;;;;;;;;6173219;23;20412;-92
2023/09/28 10:31:39;;;;;;;7.53;4.00;;;;;;;;;;6200198;23;20391;-92
2023/09/28 10:34:05;;;;;;;7.63;3.73;;;;;;;;;;6169578;23;20384;-91
2023/09/28 10:36:32;;;;;;;6.10;4.03;;;;;;;;;;6171388;23;20406;-92
2023/09/28 10:39:14;;;;;;;4.43;3.17;;;;;;;;;;6170223;23;20380;-93
2023/09/28 10:42:03;;;;;;;5.63;3.40;;;;;;;;;;6177717;23;20467;-96
2023/09/28 10:44:30;;;;;;;5.40;3.80;;;;;;;;;;6185327;23;20649;-94
2023/09/28 10:46:56;;;;;;;5.10;3.83;;;;;;;;;;6182365;23;20400;-94
2023/09/28 10:49:28;;;;;;;5.97;4.87;;;;;;;;;;6174939;23;20874;-94
2023/09/28 10:51:58;;;;;;;7.13;4.53;;;;;;;;;;6172119;23;20418;-95
2023/09/28 10:54:24;;;;;;;4.90;3.23;;;;;;;;;;6172619;23;20399;-94
2023/09/28 10:56:50;;;;;;;4.40;3.70;;;;;;;;;;6168222;23;20404;-93
2023/09/28 10:59:18;;;;;;;6.70;3.73;;;;;;;;;;6171686;23;20387;-93
2023/09/28 11:01:45;;;;;;;5.23;3.63;;;;;;;;;;6169945;23;20435;-95
2023/09/28 11:04:12;;;;;;;4.23;2.80;;;;;;;;;;6173169;23;20380;-94
2023/09/28 11:06:38;;;;;;;4.97;3.03;;;;;;;;;;6168932;23;20864;-93
2023/09/28 11:09:08;;;;;;;4.47;3.10;;;;;;;;;;6169355;23;20376;-92
2023/09/28 11:11:35;;;;;;;7.60;3.60;;;;;;;;;;6195776;23;20360;-94
2023/09/28 11:14:01;;;;;;;4.93;2.83;;;;;;;;;;6171317;23;20371;-93
2023/09/28 11:16:27;;;;;;;5.43;3.90;;;;;;;;;;6144338;23;20391;-93
2023/09/28 11:18:53;;;;;;;5.63;3.70;;;;;;;;;;6147950;23;20398;-92
2023/09/28 11:21:20;;;;;;;4.10;3.17;;;;;;;;;;6143688;23;20426;-93
2023/09/28 11:23:47;;;;;;;3.57;3.07;;;;;;;;;;6145594;23;20414;-93
2023/09/28 11:26:14;;;;;;;4.03;3.47;;;;;;;;;;6143385;23;20388;-94
2023/09/28 11:28:40;;;;;;;4.30;3.13;;;;;;;;;;6143246;23;20396;-93
2023/09/28 11:31:09;;;;;;;4.30;3.40;;;;;;;;;;6169674;23;20443;-95
2023/09/28 11:33:38;;;;;;;7.20;3.27;;;;;;;;;;6148609;23;20640;-92
2023/09/28 11:36:08;;;;;;;6.10;4.63;;;;;;;;;;6168376;23;20395;-94
2023/09/28 11:38:34;;;;;;;4.47;3.30;;;;;;;;;;6144740;23;20380;-93
2023/09/28 11:41:01;;;;;;;3.93;3.37;;;;;;;;;;6145686;23;20388;-93
2023/09/28 11:43:27;;;;;;;9.80;3.37;;;;;;;;;;6144073;23;20364;-93
2023/09/28 11:45:53;;;;;;;4.53;2.90;;;;;;;;;;6166723;23;20372;-93
2023/09/28 11:48:21;;;;;;;3.20;2.47;;;;;;;;;;6169934;23;20383;-95
2023/09/28 11:50:47;;;;;;;6.33;3.13;;;;;;;;;;6170239;23;20416;-94
2023/09/28 11:53:15;;;;;;;6.33;3.23;;;;;;;;;;6170493;23;20367;-94
2023/09/28 11:55:41;;;;;;;4.90;3.30;;;;;;;;;;6198875;23;20378;-94
2023/09/28 11:58:09;;;;;;;7.63;2.90;;;;;;;;;;6168269;23;20384;-94
2023/09/28 12:00:35;;;;;;;4.20;2.90;;;;;;;;;;6167490;23;20415;-94
2023/09/28 12:03:02;;;;;;;4.10;3.30;;;;;;;;;;6166994;23;20433;-94
2023/09/28 12:05:28;;;;;;;4.67;3.10;;;;;;;;;;6177429;23;20394;-96
2023/09/28 12:07:55;;;;;;;7.27;3.10;;;;;;;;;;6170363;23;20387;-95
2023/09/28 12:10:21;;;;;;;5.73;3.10;;;;;;;;;;6175191;23;20369;-95
2023/09/28 12:12:47;;;;;;;3.60;2.80;;;;;;;;;;6173610;23;20388;-95
2023/09/28 12:15:14;;;;;;;7.17;3.40;;;;;;;;;;6175256;23;20384;-95
2023/09/28 12:17:40;;;;;;;6.23;3.80;;;;;;;;;;6171537;23;20140;-95
2023/09/28 12:20:14;;;;;;;4.00;3.40;;;;;;;;;;6171284;23;20722;-93
2023/09/28 12:22:44;;;;;;;5.57;3.30;;;;;;;;;;6195781;23;20415;-95
2023/09/28 12:25:13;;;;;;;2.97;2.70;;;;;;;;;;6204114;23;20380;-96
2023/09/28 12:27:39;;;;;;;5.00;2.87;;;;;;;;;;6176255;23;20423;-95
2023/09/28 12:30:06;;;;;;;3.80;2.90;;;;;;;;;;6173246;23;20462;-95
2023/09/28 12:32:34;;;;;;;4.60;2.87;;;;;;;;;;6171550;23;20388;-95
2023/09/28 12:35:05;;;;;;;5.57;3.30;;;;;;;;;;6152144;23;20410;-93
2023/09/28 12:37:34;;;;;;;8.03;3.47;;;;;;;;;;6172109;23;20372;-95
2023/09/28 12:40:03;;;;;;;4.00;2.77;;;;;;;;;;6145276;23;20387;-95
2023/09/28 12:42:29;;;;;;;3.27;2.63;;;;;;;;;;6147148;23;20450;-96
2023/09/28 12:45:01;;;;;;;2.93;2.43;;;;;;;;;;6149176;23;20383;-95
2023/09/28 12:47:28;;;;;;;3.23;2.40;;;;;;;;;;6146916;23;20373;-95
2023/09/28 12:50:14;;;;;;;5.70;2.83;;;;;;;;;;6151425;23;20422;-94
2023/09/28 12:52:41;;;;;;;5.33;2.63;;;;;;;;;;6171439;23;20383;-96
2023/09/28 12:57:43;;;;;;;4.07;3.60;;;;;;;;;;6230276;22;20756;-96
2023/09/28 13:00:10;;;;;;;3.10;2.33;;;;;;;;;;6179700;23;20398;-95
2023/09/28 13:02:37;;;;;;;5.60;3.10;;;;;;;;;;6178881;23;20434;-93
2023/09/28 13:05:04;;;;;;;3.30;2.70;;;;;;;;;;6177715;23;20391;-91
2023/09/28 13:07:30;;;;;;;2.60;2.40;;;;;;;;;;6176760;23;20390;-92
2023/09/28 13:10:10;;;;;;;2.77;2.20;;;;;;;;;;6184174;23;20410;-93
2023/09/28 13:12:38;;;;;;;7.07;2.63;;;;;;;;;;6206564;23;20450;-94
2023/09/28 13:15:07;;;;;;;6.10;2.60;;;;;;;;;;6184192;23;20375;-92
2023/09/28 13:17:33;;;;;;;2.83;2.30;;;;;;;;;;6180597;23;20682;-94
2023/09/28 13:19:59;;;;;;;2.43;2.10;;;;;;;;;;6181254;23;20394;-95
2023/09/28 13:22:25;;;;;;;3.87;3.10;;;;;;;;;;6178617;23;20422;-93
2023/09/28 13:24:52;;;;;;;2.97;2.33;;;;;;;;;;6183254;23;20375;-96
2023/09/28 13:27:18;;;;;;;4.03;2.60;;;;;;;;;;6181698;23;20715;-94
2023/09/28 13:32:35;;;;;;;3.90;2.70;;;;;;;;;;6198887;23;20766;-95
2023/09/28 13:35:03;;;;;;;2.80;2.30;;;;;;;;;;6147985;23;20391;-92
2023/09/28 13:37:29;;;;;;;3.00;2.37;;;;;;;;;;6174211;23;20384;-95
2023/09/28 13:39:55;;;;;;;3.90;2.00;;;;;;;;;;6145873;23;20356;-92
2023/09/28 13:42:21;;;;;;;2.70;2.27;;;;;;;;;;6153801;23;20435;-94
2023/09/28 13:44:47;;;;;;;5.67;2.20;;;;;;;;;;6148360;23;20388;-94
2023/09/28 13:47:13;;;;;;;3.40;2.43;;;;;;;;;;6141475;23;20444;-93
2023/09/28 13:49:39;;;;;;;2.83;2.00;;;;;;;;;;6116911;23;20515;-94
2023/09/28 13:52:06;;;;;;;3.20;1.97;;;;;;;;;;6141481;23;20385;-94
2023/09/28 13:54:32;;;;;;;3.20;2.53;;;;;;;;;;6115661;23;20424;-90
2023/09/28 13:56:59;;;;;;;2.60;1.70;;;;;;;;;;6118259;23;20380;-92
2023/09/28 13:59:27;;;;;;;3.87;2.23;;;;;;;;;;6117312;23;20396;-95
2023/09/28 14:04:31;;;;;;;2.93;2.03;;;;;;;;;;6226174;22;20533;-92
2023/09/28 14:06:57;;;;;;;4.60;2.50;;;;;;;;;;6179914;23;20424;-94
2023/09/28 14:09:27;;;;;;;4.20;2.07;;;;;;;;;;6178654;23;20394;-94
2023/09/28 14:11:53;;;;;;;2.83;2.40;;;;;;;;;;6176547;22;20454;-95
2023/09/28 14:14:19;;;;;;;2.87;2.60;;;;;;;;;;6174538;23;20854;-93
2023/09/28 14:16:45;;;;;;;4.47;2.50;;;;;;;;;;6178571;23;20406;-93
2023/09/28 14:19:13;;;;;;;3.20;2.13;;;;;;;;;;6178095;23;20422;-94
2023/09/28 14:21:39;;;;;;;2.97;2.00;;;;;;;;;;6204143;23;20433;-94
2023/09/28 14:24:06;;;;;;;4.60;2.40;;;;;;;;;;6181312;23;20375;-95
2023/09/28 14:26:33;;;;;;;2.70;1.93;;;;;;;;;;6180413;23;20390;-94
2023/09/28 14:29:01;;;;;;;3.37;2.40;;;;;;;;;;6177499;23;20434;-95
2023/09/28 14:31:33;;;;;;;2.10;1.73;;;;;;;;;;6182711;23;20375;-94
2023/09/28 14:34:00;;;;;;;3.93;2.47;;;;;;;;;;6176813;23;20371;-93
2023/09/28 14:36:28;;;;;;;6.77;2.30;;;;;;;;;;6181010;23;20379;-94
2023/09/28 14:38:54;;;;;;;2.73;1.93;;;;;;;;;;6179673;23;20406;-96
2023/09/28 14:41:21;;;;;;;2.77;1.77;;;;;;;;;;6180208;23;20431;-94
2023/09/28 14:43:47;;;;;;;3.40;2.20;;;;;;;;;;6179103;23;20391;-95
2023/09/28 14:46:17;;;;;;;5.03;2.30;;;;;;;;;;6179959;23;20383;-93
2023/09/28 14:49:00;;;;;;;3.17;2.07;;;;;;;;;;6162625;22;20393;-95
2023/09/28 14:51:26;;;;;;;3.50;2.00;;;;;;;;;;6179405;23;20367;-95
2023/09/28 14:53:53;;;;;;;2.70;2.23;;;;;;;;;;6177698;23;20375;-94
2023/09/28 14:56:19;;;;;;;5.30;2.13;;;;;;;;;;6177953;23;20363;-93
2023/09/28 14:58:44;;;;;;;3.60;2.13;;;;;;;;;;6177111;23;20452;-93
2023/09/28 15:01:11;;;;;;;2.83;2.00;;;;;;;;;;6179333;23;20383;-93
2023/09/28 15:03:38;;;;;;;2.03;1.60;;;;;;;;;;6213843;23;20391;-95